Time;durP1;ratioP1;P1;durP2;ratioP2;P2;SDS_P1;SDS_P2;PMS_P1;PMS_P2;Temp;Humidity;BMP_temperature;BMP_pressure;BME280_temperature;BME280_humidity;BME280_pressure;Samples;Min_cycle;Max_cycle;Signal;HPM_P1;HPM_P2
2023/12/07 00:02:13;;;;;;;13.57;6.85;;;7.10;99.90;;;;;;4969737;28;20062;-82
2023/12/07 00:04:38;;;;;;;15.60;6.43;;;7.00;99.90;;;;;;4953098;28;20018;-83
2023/12/07 00:07:04;;;;;;;14.00;7.13;;;7.00;99.90;;;;;;4963985;28;20015;-83
2023/12/07 00:09:29;;;;;;;14.93;6.03;;;7.00;99.90;;;;;;4952971;28;20023;-83
2023/12/07 00:11:55;;;;;;;13.25;7.13;;;7.00;99.90;;;;;;4954276;28;20022;-84
2023/12/07 00:14:21;;;;;;;15.65;6.63;;;7.10;99.90;;;;;;4970037;28;20139;-82
2023/12/07 00:16:46;;;;;;;13.85;6.35;;;7.00;99.90;;;;;;4954277;28;20556;-83
2023/12/07 00:19:12;;;;;;;10.68;5.70;;;7.00;99.90;;;;;;4964477;28;20024;-83
2023/12/07 00:21:38;;;;;;;12.43;5.70;;;7.10;99.90;;;;;;4956039;28;20031;-82
2023/12/07 00:24:04;;;;;;;11.20;6.05;;;7.00;99.90;;;;;;4958457;28;20393;-82
2023/12/07 00:26:29;;;;;;;10.75;5.50;;;7.10;99.90;;;;;;4959606;28;20417;-83
2023/12/07 00:28:55;;;;;;;12.93;5.50;;;7.00;99.90;;;;;;4954011;28;20485;-82
2023/12/07 00:31:20;;;;;;;10.50;5.13;;;7.10;99.90;;;;;;4953700;28;20027;-83
2023/12/07 00:33:46;;;;;;;9.38;4.65;;;7.00;99.90;;;;;;4958418;28;20638;-83
2023/12/07 00:36:12;;;;;;;9.35;5.35;;;7.10;99.90;;;;;;4950954;28;20085;-83
2023/12/07 00:38:37;;;;;;;11.07;4.78;;;7.00;99.90;;;;;;4975589;28;20035;-83
2023/12/07 00:41:03;;;;;;;8.45;4.63;;;7.00;99.90;;;;;;4971724;28;20070;-83
2023/12/07 00:43:28;;;;;;;8.98;4.85;;;7.00;99.90;;;;;;4953344;28;20093;-83
2023/12/07 00:45:54;;;;;;;9.10;4.53;;;7.10;99.90;;;;;;4966624;28;20110;-83
2023/12/07 00:48:19;;;;;;;13.38;5.80;;;7.00;99.90;;;;;;4974960;28;20108;-83
2023/12/07 00:50:45;;;;;;;10.57;5.80;;;7.00;99.90;;;;;;4951773;28;20125;-83
2023/12/07 00:53:11;;;;;;;7.97;4.63;;;7.00;99.90;;;;;;4969871;28;20027;-83
2023/12/07 00:55:36;;;;;;;12.98;5.18;;;7.10;99.90;;;;;;4970363;28;20021;-82
2023/12/07 00:58:02;;;;;;;10.15;4.78;;;7.00;99.90;;;;;;4966347;28;20027;-83
2023/12/07 01:00:27;;;;;;;10.40;5.10;;;7.00;99.90;;;;;;4956250;28;20019;-83
2023/12/07 01:02:53;;;;;;;9.10;5.40;;;7.00;99.90;;;;;;4958943;28;20030;-83
2023/12/07 01:05:18;;;;;;;9.45;4.70;;;7.10;99.90;;;;;;4971625;28;20130;-82
2023/12/07 01:07:44;;;;;;;8.13;4.80;;;7.10;99.90;;;;;;4955439;28;20090;-82
2023/12/07 01:10:10;;;;;;;7.88;4.90;;;7.10;99.90;;;;;;4970713;28;20015;-82
2023/12/07 01:12:35;;;;;;;7.60;4.80;;;7.10;99.90;;;;;;4960318;28;20019;-84
2023/12/07 01:15:01;;;;;;;9.48;4.22;;;7.10;99.90;;;;;;4957950;28;20027;-83
2023/12/07 01:17:26;;;;;;;7.03;4.22;;;7.10;99.90;;;;;;4971814;28;20023;-83
2023/12/07 01:19:52;;;;;;;11.93;5.03;;;7.00;99.90;;;;;;4953337;28;20027;-82
2023/12/07 01:22:18;;;;;;;8.95;4.07;;;7.00;99.90;;;;;;4955957;28;20027;-83
2023/12/07 01:24:44;;;;;;;8.77;4.80;;;7.10;99.90;;;;;;4968170;28;20079;-83
2023/12/07 01:27:09;;;;;;;8.00;4.03;;;7.10;99.90;;;;;;4972936;28;20019;-82
2023/12/07 01:29:35;;;;;;;5.40;3.95;;;7.10;99.90;;;;;;4970375;28;20015;-82
2023/12/07 01:32:00;;;;;;;10.30;4.38;;;7.00;99.90;;;;;;4950824;28;20023;-83
2023/12/07 01:34:26;;;;;;;13.27;4.38;;;7.00;99.90;;;;;;4966475;28;20099;-84
2023/12/07 01:36:51;;;;;;;8.52;4.40;;;7.10;99.90;;;;;;4961406;28;20026;-82
2023/12/07 01:39:17;;;;;;;6.35;4.22;;;7.10;99.90;;;;;;4972591;28;20038;-83
2023/12/07 01:41:43;;;;;;;6.75;4.00;;;7.10;99.90;;;;;;4972691;28;20027;-83
2023/12/07 01:44:09;;;;;;;11.27;4.80;;;7.00;99.90;;;;;;4969352;28;20027;-83
2023/12/07 01:46:35;;;;;;;8.05;4.45;;;7.00;99.90;;;;;;4951654;28;20081;-83
2023/12/07 01:49:01;;;;;;;8.25;4.78;;;7.00;99.90;;;;;;4956033;28;20035;-82
2023/12/07 01:51:28;;;;;;;6.88;3.92;;;7.00;99.90;;;;;;4957951;28;20023;-84
2023/12/07 01:53:54;;;;;;;8.05;5.15;;;7.00;99.90;;;;;;4968556;28;20051;-82
2023/12/07 01:56:20;;;;;;;6.90;4.07;;;7.10;99.90;;;;;;4969708;28;20124;-82
2023/12/07 01:58:46;;;;;;;6.53;4.13;;;7.10;99.90;;;;;;4969431;28;20023;-83
2023/12/07 02:01:12;;;;;;;8.98;5.10;;;7.00;99.90;;;;;;4959257;28;20029;-84
2023/12/07 02:03:41;;;;;;;9.75;4.57;;;7.10;99.90;;;;;;4957540;28;20070;-84
2023/12/07 02:06:08;;;;;;;6.28;4.18;;;7.00;99.90;;;;;;4952164;28;20027;-83
2023/12/07 02:08:34;;;;;;;8.57;5.13;;;7.10;99.90;;;;;;4970058;28;20489;-82
2023/12/07 02:11:00;;;;;;;8.82;4.90;;;7.00;99.90;;;;;;4963377;28;20047;-83
2023/12/07 02:13:26;;;;;;;10.30;4.88;;;7.10;99.90;;;;;;4957345;28;20028;-83
2023/12/07 02:15:54;;;;;;;7.72;4.43;;;7.00;99.90;;;;;;4974610;28;20042;-82
2023/12/07 02:18:24;;;;;;;10.23;5.22;;;7.00;99.90;;;;;;4954265;28;20019;-83
2023/12/07 02:21:04;;;;;;;7.55;5.00;;;7.00;99.90;;;;;;4955348;28;20031;-82
2023/12/07 02:23:32;;;;;;;9.45;4.88;;;7.00;99.90;;;;;;4951494;28;20036;-83
2023/12/07 02:26:02;;;;;;;9.07;4.78;;;7.00;99.90;;;;;;4955169;28;20018;-83
2023/12/07 02:28:28;;;;;;;7.65;4.57;;;7.00;99.90;;;;;;4969580;28;20024;-82
2023/12/07 02:30:53;;;;;;;10.70;5.53;;;7.00;99.90;;;;;;4973973;28;20523;-82
2023/12/07 02:33:19;;;;;;;9.95;4.53;;;7.00;99.90;;;;;;4968880;28;20027;-83
2023/12/07 02:35:45;;;;;;;12.90;5.28;;;7.00;99.90;;;;;;4967992;28;20050;-83
2023/12/07 02:38:11;;;;;;;11.68;4.95;;;7.00;99.90;;;;;;4975039;28;20023;-82
2023/12/07 02:40:38;;;;;;;8.63;4.75;;;7.00;99.90;;;;;;4956576;28;20031;-83
2023/12/07 02:43:04;;;;;;;8.27;5.10;;;7.00;99.90;;;;;;4968068;28;20058;-82
2023/12/07 02:45:31;;;;;;;9.57;5.18;;;7.00;99.90;;;;;;4966903;28;20110;-83
2023/12/07 02:47:58;;;;;;;12.02;5.55;;;7.00;99.90;;;;;;4954137;28;20022;-82
2023/12/07 02:50:23;;;;;;;10.18;5.60;;;7.00;99.90;;;;;;4970731;28;20031;-83
2023/12/07 02:52:49;;;;;;;11.40;6.10;;;7.00;99.90;;;;;;4955965;28;20024;-82
2023/12/07 02:55:15;;;;;;;9.95;4.97;;;7.00;99.90;;;;;;4954073;28;20044;-83
2023/12/07 02:57:40;;;;;;;11.57;5.70;;;7.00;99.90;;;;;;4948067;28;20035;-82
2023/12/07 03:00:07;;;;;;;11.60;5.53;;;7.00;99.90;;;;;;4951673;28;20064;-83
2023/12/07 03:02:38;;;;;;;8.95;5.25;;;7.00;99.90;;;;;;4957704;28;20030;-83
2023/12/07 03:05:05;;;;;;;10.63;5.22;;;7.00;99.90;;;;;;4953604;28;20516;-83
2023/12/07 03:07:32;;;;;;;10.70;5.07;;;7.00;99.90;;;;;;4953110;28;20617;-83
2023/12/07 03:09:58;;;;;;;10.07;5.65;;;7.00;99.90;;;;;;4951172;28;20019;-83
2023/12/07 03:12:24;;;;;;;11.20;5.45;;;7.00;99.90;;;;;;4948609;28;20063;-82
2023/12/07 03:14:49;;;;;;;10.63;5.43;;;7.00;99.90;;;;;;4958673;28;20030;-82
2023/12/07 03:17:15;;;;;;;11.95;6.25;;;7.00;99.90;;;;;;4967826;28;20402;-83
2023/12/07 03:19:41;;;;;;;11.90;5.55;;;7.00;99.90;;;;;;4952089;28;20031;-83
2023/12/07 03:22:08;;;;;;;12.68;6.15;;;7.00;99.90;;;;;;4953233;28;20058;-83
2023/12/07 03:24:35;;;;;;;9.23;5.10;;;7.00;99.90;;;;;;4950149;28;20041;-83
2023/12/07 03:27:00;;;;;;;11.40;6.05;;;7.00;99.90;;;;;;4961098;28;20382;-83
2023/12/07 03:29:26;;;;;;;9.65;5.68;;;7.00;99.90;;;;;;4953321;28;20547;-82
2023/12/07 03:31:51;;;;;;;12.60;6.30;;;7.00;99.90;;;;;;4971590;28;20063;-83
2023/12/07 03:34:17;;;;;;;8.52;5.22;;;7.00;99.90;;;;;;4967963;28;20019;-83
2023/12/07 03:36:46;;;;;;;12.05;6.20;;;7.00;99.90;;;;;;4965884;28;20533;-83
2023/12/07 03:39:13;;;;;;;10.82;5.55;;;7.00;99.90;;;;;;4950670;28;20507;-83
2023/12/07 03:41:38;;;;;;;11.25;6.30;;;7.00;99.90;;;;;;4952556;28;20026;-82
2023/12/07 03:44:04;;;;;;;11.88;5.53;;;7.00;99.90;;;;;;4968974;28;20035;-83
2023/12/07 03:46:29;;;;;;;8.98;5.85;;;7.00;99.90;;;;;;4953016;28;20015;-83
2023/12/07 03:48:55;;;;;;;11.20;5.60;;;7.00;99.90;;;;;;4966674;28;20032;-83
2023/12/07 03:51:20;;;;;;;10.35;6.13;;;7.00;99.90;;;;;;4972008;28;20023;-82
2023/12/07 03:53:46;;;;;;;9.75;5.63;;;7.00;99.90;;;;;;4971862;28;20031;-83
2023/12/07 03:56:22;;;;;;;10.07;6.03;;;7.00;99.90;;;;;;4954538;28;20027;-82
2023/12/07 03:58:48;;;;;;;10.00;5.90;;;7.00;99.90;;;;;;4952665;28;20034;-83
2023/12/07 04:01:13;;;;;;;9.80;4.88;;;7.00;99.90;;;;;;4966088;28;20019;-83
2023/12/07 04:03:39;;;;;;;9.70;5.43;;;7.00;99.90;;;;;;4954275;28;20038;-83
2023/12/07 04:06:05;;;;;;;11.50;5.90;;;7.00;99.90;;;;;;4973227;28;20023;-83
2023/12/07 04:08:30;;;;;;;7.95;4.68;;;7.00;99.90;;;;;;4969395;28;20545;-82
2023/12/07 04:10:56;;;;;;;8.18;5.03;;;7.00;99.90;;;;;;4954352;28;20035;-83
2023/12/07 04:13:21;;;;;;;11.32;5.63;;;6.90;99.90;;;;;;4950409;28;20089;-83
2023/12/07 04:15:47;;;;;;;11.65;5.43;;;7.00;99.90;;;;;;4954348;28;20028;-84
2023/12/07 04:18:12;;;;;;;8.98;5.00;;;7.00;99.90;;;;;;4957115;28;20485;-83
2023/12/07 04:20:38;;;;;;;15.52;5.40;;;7.00;99.90;;;;;;4969553;28;20065;-84
2023/12/07 04:23:03;;;;;;;8.00;4.75;;;7.00;99.90;;;;;;4952203;28;20142;-83
2023/12/07 04:25:29;;;;;;;8.32;4.90;;;7.00;99.90;;;;;;4965578;28;20085;-83
2023/12/07 04:27:54;;;;;;;11.75;5.50;;;7.00;99.90;;;;;;4966394;28;20425;-83
2023/12/07 04:30:20;;;;;;;9.90;5.32;;;6.90;99.90;;;;;;4955876;28;20421;-83
2023/12/07 04:32:45;;;;;;;9.15;5.15;;;6.90;99.90;;;;;;4953695;28;20078;-83
2023/12/07 04:35:11;;;;;;;8.50;4.97;;;7.00;99.90;;;;;;4951789;28;20114;-83
2023/12/07 04:37:37;;;;;;;9.25;5.47;;;7.00;99.90;;;;;;4964389;28;20070;-84
2023/12/07 04:40:04;;;;;;;7.30;4.53;;;7.00;99.90;;;;;;4971950;28;20176;-83
2023/12/07 04:42:30;;;;;;;7.78;5.15;;;7.00;99.90;;;;;;4954253;28;20043;-84
2023/12/07 04:44:55;;;;;;;8.23;4.90;;;7.00;99.90;;;;;;4955831;28;20023;-82
2023/12/07 04:47:22;;;;;;;9.18;4.57;;;6.90;99.90;;;;;;4967444;28;20027;-82
2023/12/07 04:49:48;;;;;;;10.55;5.43;;;7.00;99.90;;;;;;4947823;28;20027;-83
2023/12/07 04:52:13;;;;;;;11.60;5.75;;;6.90;99.90;;;;;;4972305;28;20023;-83
2023/12/07 04:54:39;;;;;;;8.48;5.18;;;6.90;99.90;;;;;;4969866;28;20027;-82
2023/12/07 04:57:04;;;;;;;8.85;4.70;;;6.90;99.90;;;;;;4952120;28;20035;-82
2023/12/07 04:59:30;;;;;;;7.78;4.97;;;6.90;99.90;;;;;;4966227;28;20050;-83
2023/12/07 05:01:55;;;;;;;11.02;5.28;;;6.90;99.90;;;;;;4966466;28;20038;-85
2023/12/07 05:04:21;;;;;;;9.57;5.13;;;7.00;99.90;;;;;;4972324;28;20022;-83
2023/12/07 05:06:47;;;;;;;10.25;5.10;;;7.00;99.90;;;;;;4951751;28;20027;-83
2023/12/07 05:09:12;;;;;;;9.30;4.88;;;7.00;99.90;;;;;;4953470;28;20022;-82
2023/12/07 05:11:38;;;;;;;11.55;5.05;;;7.00;99.90;;;;;;4956842;28;20087;-83
2023/12/07 05:14:03;;;;;;;12.18;5.35;;;7.00;99.90;;;;;;4970296;28;20024;-83
2023/12/07 05:16:29;;;;;;;11.43;5.45;;;7.00;99.90;;;;;;4971357;28;20027;-82
2023/12/07 05:18:55;;;;;;;11.52;5.50;;;6.90;99.90;;;;;;4959315;28;20031;-83
2023/12/07 05:21:21;;;;;;;10.20;5.03;;;7.00;99.90;;;;;;4958165;28;20126;-83
2023/12/07 05:23:46;;;;;;;12.07;5.95;;;7.00;99.90;;;;;;4954648;28;20107;-84
2023/12/07 05:26:12;;;;;;;10.57;5.75;;;7.00;99.90;;;;;;4969381;28;20038;-84
2023/12/07 05:28:38;;;;;;;8.85;5.15;;;7.00;99.90;;;;;;4971816;28;20110;-84
2023/12/07 05:31:03;;;;;;;9.70;5.18;;;6.90;99.90;;;;;;4954619;28;20030;-84
2023/12/07 05:33:29;;;;;;;11.18;4.70;;;7.00;99.90;;;;;;4953828;28;20054;-82
2023/12/07 05:35:54;;;;;;;8.18;4.75;;;7.00;99.90;;;;;;4953709;28;20031;-82
2023/12/07 05:38:20;;;;;;;9.05;5.35;;;7.00;99.90;;;;;;4957544;28;20027;-83
2023/12/07 05:40:46;;;;;;;11.30;5.38;;;7.00;99.90;;;;;;4953343;28;20059;-83
2023/12/07 05:43:11;;;;;;;7.57;5.15;;;7.00;99.90;;;;;;4975340;28;20082;-82
2023/12/07 05:45:37;;;;;;;10.73;5.90;;;6.90;99.90;;;;;;4956771;28;20079;-82
2023/12/07 05:48:02;;;;;;;8.93;4.82;;;7.00;99.90;;;;;;4972056;28;20027;-82
2023/12/07 05:50:28;;;;;;;14.15;5.53;;;7.00;99.90;;;;;;4954388;28;20023;-83
2023/12/07 05:52:55;;;;;;;11.07;5.05;;;7.00;99.90;;;;;;4968004;28;20055;-83
2023/12/07 05:55:20;;;;;;;11.05;5.32;;;7.00;99.90;;;;;;4960760;28;20054;-82
2023/12/07 05:57:46;;;;;;;10.30;5.55;;;7.00;99.90;;;;;;4955075;28;20054;-83
2023/12/07 06:00:12;;;;;;;9.18;5.65;;;6.90;99.90;;;;;;4970337;28;20134;-83
2023/12/07 06:02:38;;;;;;;7.68;4.72;;;7.00;99.90;;;;;;4968526;28;20078;-82
2023/12/07 06:05:04;;;;;;;8.63;5.20;;;7.00;99.90;;;;;;4972580;28;20517;-83
2023/12/07 06:07:30;;;;;;;9.23;5.60;;;6.90;99.90;;;;;;4958948;28;20109;-82
2023/12/07 06:09:56;;;;;;;13.32;5.40;;;6.90;99.90;;;;;;4956542;28;20666;-82
2023/12/07 06:12:22;;;;;;;7.47;4.95;;;7.00;99.90;;;;;;4955806;28;20034;-82
2023/12/07 06:14:48;;;;;;;10.95;5.85;;;7.00;99.90;;;;;;4951941;28;20031;-83
2023/12/07 06:17:14;;;;;;;10.50;5.75;;;7.00;99.90;;;;;;4954149;28;20100;-83
2023/12/07 06:19:39;;;;;;;9.45;5.60;;;6.90;99.90;;;;;;4952937;28;20498;-83
2023/12/07 06:22:05;;;;;;;10.07;5.97;;;6.90;99.90;;;;;;4958452;28;20042;-83
2023/12/07 06:24:32;;;;;;;10.18;5.68;;;7.00;99.90;;;;;;4952868;28;20524;-83
2023/12/07 06:26:58;;;;;;;11.80;6.00;;;7.00;99.90;;;;;;4949031;28;20052;-83
2023/12/07 06:29:23;;;;;;;9.10;5.40;;;6.90;99.90;;;;;;4950227;29;20054;-83
2023/12/07 06:31:49;;;;;;;8.88;5.43;;;7.00;99.90;;;;;;4977545;28;20027;-83
2023/12/07 06:34:14;;;;;;;10.95;5.75;;;6.90;99.90;;;;;;4974333;28;20031;-83
2023/12/07 06:36:40;;;;;;;10.13;5.72;;;6.90;99.90;;;;;;4970153;28;20023;-83
2023/12/07 06:39:05;;;;;;;12.00;6.05;;;6.90;99.90;;;;;;4968311;28;20038;-83
2023/12/07 06:41:31;;;;;;;11.70;6.07;;;7.00;99.90;;;;;;4966834;28;20322;-82
2023/12/07 06:43:57;;;;;;;9.88;5.13;;;7.00;99.90;;;;;;4965817;28;20019;-86
2023/12/07 06:46:22;;;;;;;11.20;6.35;;;6.90;99.90;;;;;;4961495;28;20042;-88
2023/12/07 06:48:48;;;;;;;11.77;5.50;;;6.90;99.90;;;;;;4967038;28;20026;-90
2023/12/07 06:51:14;;;;;;;9.10;5.82;;;6.90;99.90;;;;;;4965144;28;20032;-88
2023/12/07 06:53:40;;;;;;;12.63;6.28;;;6.90;99.90;;;;;;4959658;28;20027;-89
2023/12/07 06:56:07;;;;;;;8.50;5.22;;;6.90;99.90;;;;;;4945811;29;20054;-88
2023/12/07 06:58:33;;;;;;;11.98;6.53;;;6.90;99.90;;;;;;4948220;29;20054;-88
2023/12/07 07:00:58;;;;;;;12.60;6.25;;;6.90;99.90;;;;;;4953237;29;20097;-89
2023/12/07 07:03:24;;;;;;;11.02;6.32;;;6.90;99.90;;;;;;4969489;28;20024;-90
2023/12/07 07:05:50;;;;;;;11.02;5.70;;;6.90;99.90;;;;;;4958509;28;20106;-89
2023/12/07 07:08:15;;;;;;;12.45;5.72;;;6.90;99.90;;;;;;4971034;28;20390;-89
2023/12/07 07:10:41;;;;;;;14.77;6.10;;;6.90;99.90;;;;;;4945429;28;20023;-89
2023/12/07 07:13:07;;;;;;;10.10;6.22;;;6.90;99.90;;;;;;4953343;28;20122;-88
2023/12/07 07:15:33;;;;;;;14.32;6.53;;;6.90;99.90;;;;;;4953019;29;20050;-90
2023/12/07 07:17:58;;;;;;;12.32;6.65;;;6.90;99.90;;;;;;4952737;29;20027;-90
2023/12/07 07:20:26;;;;;;;12.02;6.65;;;6.90;99.90;;;;;;4953006;29;20023;-90
2023/12/07 07:22:51;;;;;;;12.57;6.75;;;6.90;99.90;;;;;;4948354;28;20114;-90
2023/12/07 07:25:19;;;;;;;12.10;6.25;;;7.00;99.90;;;;;;4950991;29;20107;-88
2023/12/07 07:27:48;;;;;;;15.13;7.18;;;7.00;99.90;;;;;;4953960;28;20788;-88
2023/12/07 07:30:14;;;;;;;9.95;6.03;;;6.90;99.90;;;;;;4951670;28;20678;-90
2023/12/07 07:32:40;;;;;;;11.52;7.15;;;6.90;99.90;;;;;;4972449;28;20118;-88
2023/12/07 07:35:05;;;;;;;15.38;6.53;;;7.00;99.90;;;;;;4973230;28;20114;-90
2023/12/07 07:37:31;;;;;;;13.15;5.90;;;7.00;99.90;;;;;;4943406;29;20165;-89
2023/12/07 07:39:57;;;;;;;13.02;6.63;;;7.00;99.90;;;;;;4950269;29;20389;-89
2023/12/07 07:42:22;;;;;;;11.98;6.55;;;7.00;99.90;;;;;;4939682;28;20035;-89
2023/12/07 07:44:48;;;;;;;10.80;6.25;;;7.00;99.90;;;;;;4955863;28;20027;-88
2023/12/07 07:47:13;;;;;;;14.90;6.72;;;7.00;99.90;;;;;;4954530;28;20062;-90
2023/12/07 07:49:39;;;;;;;15.23;6.78;;;7.00;99.90;;;;;;4961202;28;20031;-90
2023/12/07 07:52:05;;;;;;;13.00;6.95;;;7.00;99.90;;;;;;4974195;28;20031;-88
2023/12/07 07:54:30;;;;;;;10.93;6.57;;;7.00;99.90;;;;;;4953479;28;20441;-88
2023/12/07 07:56:56;;;;;;;13.50;7.40;;;7.00;99.90;;;;;;4971298;28;20078;-87
2023/12/07 07:59:22;;;;;;;12.32;6.57;;;7.00;99.90;;;;;;4956390;28;20038;-87
2023/12/07 08:01:47;;;;;;;14.98;7.18;;;7.10;99.90;;;;;;4956038;28;20012;-87
2023/12/07 08:04:13;;;;;;;15.13;6.78;;;7.10;99.90;;;;;;4950144;28;20028;-87
2023/12/07 08:06:38;;;;;;;13.20;7.53;;;7.10;99.90;;;;;;4955987;28;20078;-88
2023/12/07 08:09:04;;;;;;;13.43;7.00;;;7.10;99.90;;;;;;4964804;28;20015;-86
2023/12/07 08:11:30;;;;;;;15.77;7.45;;;7.10;99.90;;;;;;4964119;28;20511;-87
2023/12/07 08:13:55;;;;;;;13.30;7.28;;;7.10;99.90;;;;;;4949113;28;20512;-87
2023/12/07 08:16:22;;;;;;;12.63;7.65;;;7.10;99.90;;;;;;4970863;28;20078;-86
2023/12/07 08:18:48;;;;;;;14.60;7.80;;;7.10;99.90;;;;;;4951499;28;20035;-88
2023/12/07 08:21:24;;;;;;;14.95;7.18;;;7.10;99.90;;;;;;4964194;28;20031;-86
2023/12/07 08:23:49;;;;;;;15.50;7.63;;;7.10;99.90;;;;;;4950172;28;20085;-85
2023/12/07 08:26:15;;;;;;;12.82;7.38;;;7.20;99.90;;;;;;4954800;28;20445;-87
2023/12/07 08:28:41;;;;;;;11.48;6.50;;;7.20;99.90;;;;;;4949817;28;20702;-85
2023/12/07 08:31:07;;;;;;;15.43;7.53;;;7.20;99.90;;;;;;4950803;28;20024;-85
2023/12/07 08:33:35;;;;;;;18.08;7.68;;;7.20;99.90;;;;;;4957879;28;20031;-86
2023/12/07 08:36:02;;;;;;;13.68;6.82;;;7.20;99.90;;;;;;4964862;28;20023;-84
2023/12/07 08:38:28;;;;;;;13.60;7.75;;;7.20;99.90;;;;;;4957024;28;20076;-86
2023/12/07 08:40:53;;;;;;;17.77;8.07;;;7.30;99.90;;;;;;4966868;28;20105;-87
2023/12/07 08:43:25;;;;;;;14.13;7.45;;;7.30;99.90;;;;;;4951769;28;20030;-86
2023/12/07 08:45:51;;;;;;;12.32;7.65;;;7.30;99.90;;;;;;4968973;28;20031;-87
2023/12/07 08:48:21;;;;;;;16.38;7.85;;;7.30;99.90;;;;;;4971344;28;20078;-86
2023/12/07 08:50:46;;;;;;;15.02;7.57;;;7.30;99.90;;;;;;4949436;28;20027;-87
2023/12/07 08:53:12;;;;;;;19.02;8.43;;;7.30;99.90;;;;;;4948792;28;20031;-86
2023/12/07 08:55:38;;;;;;;17.75;7.60;;;7.30;99.90;;;;;;4959316;28;20528;-87
2023/12/07 08:58:06;;;;;;;17.58;8.27;;;7.30;99.90;;;;;;4954312;28;20024;-85
2023/12/07 09:00:35;;;;;;;17.73;7.63;;;7.40;99.90;;;;;;4957177;28;20090;-86
2023/12/07 09:03:01;;;;;;;20.80;8.65;;;7.40;99.90;;;;;;4952490;28;20067;-86
2023/12/07 09:05:27;;;;;;;16.15;7.45;;;7.40;99.90;;;;;;4951941;28;20020;-86
2023/12/07 09:07:53;;;;;;;18.25;8.98;;;7.40;99.90;;;;;;4951834;28;20390;-86
2023/12/07 09:10:19;;;;;;;13.25;7.43;;;7.30;99.90;;;;;;4970547;28;20562;-86
2023/12/07 09:12:45;;;;;;;17.77;8.35;;;7.40;99.90;;;;;;4954820;28;20100;-86
2023/12/07 09:15:10;;;;;;;18.60;8.25;;;7.40;99.90;;;;;;4951120;28;20087;-86
2023/12/07 09:17:40;;;;;;;14.70;8.00;;;7.40;99.90;;;;;;4953456;28;20035;-86
2023/12/07 09:20:12;;;;;;;13.15;7.38;;;7.40;99.90;;;;;;4951314;28;20647;-87
2023/12/07 09:22:40;;;;;;;17.52;8.40;;;7.40;99.90;;;;;;4949463;28;20050;-86
2023/12/07 09:25:07;;;;;;;14.90;8.50;;;7.50;99.90;;;;;;4947938;28;20026;-86
2023/12/07 09:27:34;;;;;;;17.70;8.60;;;7.50;99.90;;;;;;4954472;28;20086;-84
2023/12/07 09:30:01;;;;;;;14.05;8.45;;;7.50;99.90;;;;;;4952062;28;20638;-86
2023/12/07 09:32:27;;;;;;;17.00;8.20;;;7.50;99.90;;;;;;4960271;28;20031;-86
2023/12/07 09:34:53;;;;;;;15.23;8.20;;;7.50;99.90;;;;;;4970443;28;20393;-85
2023/12/07 09:37:19;;;;;;;18.25;8.38;;;7.50;99.90;;;;;;4955126;28;20058;-85
2023/12/07 09:39:44;;;;;;;13.50;7.65;;;7.50;99.90;;;;;;4954682;28;20519;-84
2023/12/07 09:42:10;;;;;;;18.73;8.63;;;7.50;99.90;;;;;;4973511;28;20027;-86
2023/12/07 09:44:36;;;;;;;13.93;8.13;;;7.50;99.90;;;;;;4949460;28;20049;-84
2023/12/07 09:47:01;;;;;;;15.73;7.97;;;7.50;99.90;;;;;;4952131;28;20601;-87
2023/12/07 09:49:27;;;;;;;15.38;7.72;;;7.50;99.90;;;;;;4970315;28;20585;-85
2023/12/07 09:51:56;;;;;;;15.50;7.70;;;7.50;99.90;;;;;;4959459;28;20030;-84
2023/12/07 09:54:22;;;;;;;15.88;8.18;;;7.40;99.90;;;;;;4962263;28;20029;-85
2023/12/07 09:56:47;;;;;;;13.85;8.02;;;7.50;99.90;;;;;;4959290;28;20027;-86
2023/12/07 09:59:13;;;;;;;15.43;7.65;;;7.50;99.90;;;;;;4975478;28;20035;-84
2023/12/07 10:01:39;;;;;;;14.07;7.20;;;7.50;99.90;;;;;;4967674;28;20035;-84
2023/12/07 10:04:22;;;;;;;15.48;8.20;;;7.50;99.90;;;;;;4952952;28;20055;-84
2023/12/07 10:06:49;;;;;;;13.27;7.63;;;7.50;99.90;;;;;;4966246;28;20552;-84
2023/12/07 10:09:14;;;;;;;15.10;7.97;;;7.50;99.90;;;;;;4947845;28;20074;-85
2023/12/07 10:11:41;;;;;;;15.88;8.60;;;7.50;99.90;;;;;;4967795;28;20047;-85
2023/12/07 10:14:07;;;;;;;16.25;7.53;;;7.50;99.90;;;;;;4947150;28;20024;-86
2023/12/07 10:16:35;;;;;;;18.38;8.23;;;7.50;99.90;;;;;;4952734;28;20086;-84
2023/12/07 10:19:21;;;;;;;17.77;8.88;;;7.50;99.90;;;;;;4950916;28;20046;-86
2023/12/07 10:21:51;;;;;;;15.10;8.25;;;7.50;99.90;;;;;;4964085;28;20055;-85
2023/12/07 10:24:18;;;;;;;18.58;8.60;;;7.60;99.90;;;;;;4949897;28;20033;-85
2023/12/07 10:26:45;;;;;;;15.45;8.23;;;7.60;99.90;;;;;;4948848;28;20308;-85
2023/12/07 10:29:11;;;;;;;16.33;8.75;;;7.60;99.90;;;;;;4951768;28;20047;-85
2023/12/07 10:31:37;;;;;;;16.17;9.18;;;7.60;99.90;;;;;;4951113;28;20054;-86
2023/12/07 10:34:04;;;;;;;15.15;8.50;;;7.60;99.90;;;;;;4949299;28;20042;-85
2023/12/07 10:36:30;;;;;;;19.35;8.88;;;7.60;99.90;;;;;;4950590;28;20019;-86
2023/12/07 10:38:55;;;;;;;18.63;8.90;;;7.70;99.90;;;;;;4949408;28;20493;-85
2023/12/07 10:41:23;;;;;;;21.65;9.45;;;7.70;99.90;;;;;;4950909;28;20061;-85
2023/12/07 10:44:03;;;;;;;22.25;9.65;;;7.70;99.90;;;;;;4949979;28;20082;-85
2023/12/07 10:46:32;;;;;;;17.05;7.53;;;7.70;99.90;;;;;;4948651;28;20042;-86
2023/12/07 10:49:04;;;;;;;18.00;9.25;;;7.70;99.90;;;;;;4950566;28;20035;-87
2023/12/07 10:51:45;;;;;;;16.40;8.45;;;7.80;99.90;;;;;;4965850;28;20090;-89
2023/12/07 10:54:14;;;;;;;15.27;8.38;;;7.70;99.90;;;;;;4950929;28;20028;-85
2023/12/07 10:56:43;;;;;;;18.02;8.93;;;7.70;99.90;;;;;;4949652;28;20119;-86
2023/12/07 10:59:13;;;;;;;15.55;8.95;;;7.80;99.90;;;;;;4949335;28;20058;-85
2023/12/07 11:01:40;;;;;;;16.77;8.38;;;7.80;99.90;;;;;;4950442;28;20183;-85
2023/12/07 11:04:06;;;;;;;15.65;8.38;;;7.70;99.90;;;;;;4943984;28;20028;-85
2023/12/07 11:06:36;;;;;;;17.00;8.27;;;7.80;99.90;;;;;;4948584;28;20174;-87
2023/12/07 11:09:06;;;;;;;15.30;8.48;;;7.80;99.90;;;;;;4950390;28;20027;-85
2023/12/07 11:11:52;;;;;;;16.90;9.00;;;7.80;99.90;;;;;;4950305;28;20166;-84
2023/12/07 11:14:18;;;;;;;16.80;7.90;;;7.80;99.90;;;;;;4966652;28;20065;-84
2023/12/07 11:16:46;;;;;;;19.90;9.57;;;7.80;99.90;;;;;;4949258;28;20023;-84
2023/12/07 11:19:33;;;;;;;18.15;9.43;;;7.80;99.90;;;;;;4950924;28;20069;-85
2023/12/07 11:22:00;;;;;;;18.27;8.60;;;7.80;99.90;;;;;;4963503;28;20483;-85
2023/12/07 11:24:25;;;;;;;19.67;8.02;;;7.80;99.90;;;;;;4963992;28;20031;-84
2023/12/07 11:26:55;;;;;;;14.50;7.90;;;7.90;99.90;;;;;;4950389;28;20057;-84
2023/12/07 11:29:21;;;;;;;16.30;8.55;;;7.80;99.90;;;;;;4970488;28;20023;-86
2023/12/07 11:31:48;;;;;;;16.95;8.80;;;7.90;99.90;;;;;;4961295;28;20457;-87
2023/12/07 11:34:29;;;;;;;16.13;8.30;;;7.90;99.90;;;;;;4959366;28;20033;-84
2023/12/07 11:36:55;;;;;;;14.07;8.07;;;7.90;99.90;;;;;;4959187;28;20524;-85
2023/12/07 11:39:25;;;;;;;14.13;8.52;;;7.90;99.90;;;;;;4954809;28;20058;-86
2023/12/07 11:41:54;;;;;;;14.15;7.75;;;7.90;99.90;;;;;;4957984;28;20053;-84
2023/12/07 11:44:19;;;;;;;17.30;8.40;;;7.90;99.90;;;;;;4954692;28;20098;-78
2023/12/07 11:46:46;;;;;;;7.45;3.58;;;7.90;99.90;;;;;;4957012;28;20042;-74
2023/12/07 11:49:12;;;;;;;8.05;3.83;;;11.00;99.90;;;;;;4956849;28;20026;-73
2023/12/07 11:51:38;;;;;;;6.70;3.63;;;12.50;99.90;;;;;;4973279;28;20047;-74
2023/12/07 11:54:04;;;;;;;6.10;3.42;;;12.70;99.90;;;;;;4957801;28;20449;-73
2023/12/07 11:56:30;;;;;;;9.63;3.70;;;12.80;99.90;;;;;;4959155;28;20011;-74
2023/12/07 11:58:57;;;;;;;5.93;3.28;;;12.80;98.00;;;;;;4971726;28;20027;-74
2023/12/07 12:01:24;;;;;;;7.60;3.72;;;12.80;98.80;;;;;;4949846;28;20034;-74
2023/12/07 12:03:50;;;;;;;6.68;3.60;;;12.80;99.00;;;;;;4965401;28;20115;-76
2023/12/07 12:06:15;;;;;;;6.13;3.72;;;12.90;98.70;;;;;;4960949;28;20098;-76
2023/12/07 12:08:44;;;;;;;9.60;4.05;;;12.90;98.20;;;;;;4965952;28;20494;-75
2023/12/07 12:11:10;;;;;;;8.13;3.42;;;13.00;97.80;;;;;;4962548;28;20042;-76
2023/12/07 12:13:37;;;;;;;6.07;3.83;;;13.00;97.40;;;;;;4947653;28;20478;-76
2023/12/07 12:16:04;;;;;;;6.00;3.75;;;13.00;97.10;;;;;;4948771;28;20029;-76
2023/12/07 12:18:29;;;;;;;7.03;3.58;;;12.90;97.20;;;;;;4960460;28;20122;-75
2023/12/07 12:20:57;;;;;;;7.07;4.35;;;12.90;96.90;;;;;;4955006;28;20118;-75
2023/12/07 12:23:22;;;;;;;8.48;4.30;;;12.90;96.80;;;;;;4954817;28;20027;-75
2023/12/07 12:25:49;;;;;;;9.20;4.07;;;12.80;96.80;;;;;;4955653;28;20030;-75
2023/12/07 12:28:18;;;;;;;10.85;4.05;;;12.80;96.60;;;;;;4953087;28;20019;-84
2023/12/07 12:30:44;;;;;;;9.35;4.50;;;12.40;96.90;;;;;;4946772;29;20034;-84
2023/12/07 12:33:09;;;;;;;9.00;5.53;;;10.70;99.90;;;;;;4950096;28;20031;-83
2023/12/07 12:35:35;;;;;;;7.47;5.25;;;9.70;99.90;;;;;;4952688;28;20232;-83
2023/12/07 12:38:00;;;;;;;11.50;5.55;;;9.00;99.90;;;;;;4951629;28;20102;-84
2023/12/07 12:40:31;;;;;;;12.70;6.63;;;8.60;99.90;;;;;;4967397;28;20302;-84
2023/12/07 12:42:57;;;;;;;15.02;6.95;;;8.30;99.90;;;;;;4946762;28;20042;-86
2023/12/07 12:45:23;;;;;;;13.77;7.35;;;8.20;99.90;;;;;;4948794;28;20121;-84
2023/12/07 12:47:49;;;;;;;15.32;7.47;;;8.10;99.90;;;;;;4954512;28;20028;-85